CPA750 VTBS-VHHH
Flight info
| Callsign | CPA750 |
|---|---|
| Flight time | N/A |
| Altitude | 37000 |
| Route | N0490F370 SELKA A1 SANOT Y15 GUROK A202 VILAO/K0906F370 A202 ASSAD/K0904S1130 A202 SAMAS/K0802S0630 A202 SIKOU/N0488F370 V571 CANTO |
| Aircraft | B77W/H-SDE3GHIJ2J3J4J7M3P2RWXYZ/LB1D1 |
Departure
| Time | 2026-05-08 08:11 |
|---|---|
| Airport | Suvarnabhumi Airport (VTBS) |
Arrival
| Time | N/A |
|---|---|
| Airport | Hong Kong International Airport (VHHH) |
| Time | Latitude | Longitude | Altitude | Speed | Heading |
|---|---|---|---|---|---|
| 2026-05-08 06:56 | 13.69576 | 100.74687 | 18 ft | 0 kts | 104° |
| 2026-05-08 08:00 | 13.69582 | 100.74664 | 20 ft | 4 kts | 105° |
| 2026-05-08 08:00 | 13.69589 | 100.74637 | 21 ft | 4 kts | 99° |
| 2026-05-08 08:01 | 13.69589 | 100.74612 | 22 ft | 4 kts | 59° |
| 2026-05-08 08:01 | 13.69573 | 100.74601 | 22 ft | 4 kts | 14° |
| 2026-05-08 08:01 | 13.69547 | 100.74595 | 20 ft | 3 kts | 14° |
| 2026-05-08 08:01 | 13.69544 | 100.74594 | 20 ft | 0 kts | 14° |
| 2026-05-08 08:03 | 13.69545 | 100.74594 | 18 ft | 0 kts | 14° |
| 2026-05-08 08:03 | 13.69571 | 100.74601 | 18 ft | 6 kts | 14° |
| 2026-05-08 08:04 | 13.69613 | 100.74612 | 18 ft | 6 kts | 15° |
| 2026-05-08 08:04 | 13.69657 | 100.74624 | 18 ft | 7 kts | 14° |
| 2026-05-08 08:04 | 13.69705 | 100.74637 | 18 ft | 7 kts | 14° |
| 2026-05-08 08:04 | 13.69755 | 100.74650 | 18 ft | 8 kts | 14° |
| 2026-05-08 08:05 | 13.69809 | 100.74649 | 18 ft | 8 kts | 335° |
| 2026-05-08 08:05 | 13.69838 | 100.74598 | 18 ft | 9 kts | 288° |
| 2026-05-08 08:05 | 13.69855 | 100.74539 | 18 ft | 9 kts | 283° |
| 2026-05-08 08:05 | 13.69868 | 100.74478 | 18 ft | 9 kts | 283° |
| 2026-05-08 08:06 | 13.69885 | 100.74416 | 18 ft | 9 kts | 296° |
| 2026-05-08 08:06 | 13.69946 | 100.74400 | 18 ft | 10 kts | 11° |
| 2026-05-08 08:06 | 13.70012 | 100.74416 | 18 ft | 10 kts | 14° |
| 2026-05-08 08:06 | 13.70077 | 100.74433 | 18 ft | 10 kts | 14° |
| 2026-05-08 08:07 | 13.70142 | 100.74451 | 18 ft | 10 kts | 14° |
| 2026-05-08 08:07 | 13.70208 | 100.74468 | 18 ft | 10 kts | 14° |
| 2026-05-08 08:07 | 13.70273 | 100.74485 | 18 ft | 10 kts | 14° |
| 2026-05-08 08:07 | 13.70329 | 100.74458 | 18 ft | 10 kts | 297° |
| 2026-05-08 08:08 | 13.70348 | 100.74389 | 19 ft | 10 kts | 275° |
| 2026-05-08 08:08 | 13.70333 | 100.74319 | 20 ft | 10 kts | 243° |
| 2026-05-08 08:08 | 13.70298 | 100.74300 | 20 ft | 0 kts | 193° |
| 2026-05-08 08:10 | 13.70159 | 100.74264 | 20 ft | 58 kts | 194° |
| 2026-05-08 08:10 | 13.69509 | 100.74093 | 15 ft | 132 kts | 194° |
| 2026-05-08 08:10 | 13.68433 | 100.73804 | 138 ft | 175 kts | 194° |
| 2026-05-08 08:11 | 13.67227 | 100.73471 | 716 ft | 185 kts | 193° |
| 2026-05-08 08:11 | 13.65976 | 100.73142 | 1456 ft | 188 kts | 193° |
| 2026-05-08 08:11 | 13.64726 | 100.72820 | 2212 ft | 189 kts | 193° |
| 2026-05-08 08:11 | 13.63438 | 100.72489 | 2836 ft | 193 kts | 193° |
| 2026-05-08 08:12 | 13.62095 | 100.72137 | 3412 ft | 201 kts | 191° |
| 2026-05-08 08:12 | 13.60661 | 100.72088 | 3639 ft | 221 kts | 161° |
| 2026-05-08 08:12 | 13.59294 | 100.72939 | 3847 ft | 246 kts | 129° |
| 2026-05-08 08:12 | 13.58509 | 100.74524 | 4384 ft | 257 kts | 99° |
| 2026-05-08 08:13 | 13.58496 | 100.76368 | 5117 ft | 262 kts | 83° |
| 2026-05-08 08:13 | 13.58768 | 100.78241 | 5963 ft | 267 kts | 80° |
| 2026-05-08 08:13 | 13.59094 | 100.80131 | 6812 ft | 269 kts | 79° |
| 2026-05-08 08:13 | 13.59435 | 100.82031 | 7651 ft | 273 kts | 79° |
| 2026-05-08 08:14 | 13.59919 | 100.83933 | 8348 ft | 280 kts | 70° |
| 2026-05-08 08:14 | 13.60644 | 100.85803 | 9165 ft | 282 kts | 67° |
| 2026-05-08 08:14 | 13.61418 | 100.87663 | 9966 ft | 286 kts | 68° |
| 2026-05-08 08:14 | 13.62210 | 100.89581 | 10519 ft | 300 kts | 68° |
| 2026-05-08 08:15 | 13.63051 | 100.91653 | 10723 ft | 328 kts | 68° |
| 2026-05-08 08:15 | 13.63952 | 100.93909 | 10929 ft | 355 kts | 69° |
| 2026-05-08 08:15 | 13.64907 | 100.96341 | 11285 ft | 375 kts | 69° |
| 2026-05-08 08:15 | 13.65889 | 100.98860 | 12020 ft | 384 kts | 69° |
| 2026-05-08 08:16 | 13.66882 | 101.01423 | 12941 ft | 388 kts | 69° |
| 2026-05-08 08:16 | 13.67890 | 101.04025 | 13759 ft | 395 kts | 69° |
| 2026-05-08 08:16 | 13.68911 | 101.06668 | 14511 ft | 400 kts | 70° |
| 2026-05-08 08:16 | 13.69940 | 101.09344 | 15250 ft | 406 kts | 69° |
| 2026-05-08 08:17 | 13.70989 | 101.12066 | 15969 ft | 412 kts | 70° |
| 2026-05-08 08:17 | 13.72050 | 101.14821 | 16709 ft | 417 kts | 70° |
| 2026-05-08 08:17 | 13.73124 | 101.17607 | 17417 ft | 422 kts | 70° |
| 2026-05-08 08:17 | 13.74257 | 101.20418 | 18116 ft | 428 kts | 66° |
| 2026-05-08 08:18 | 13.75716 | 101.23114 | 18719 ft | 434 kts | 58° |
| 2026-05-08 08:18 | 13.77477 | 101.25654 | 19346 ft | 439 kts | 52° |
| 2026-05-08 08:18 | 13.79515 | 101.28013 | 19972 ft | 443 kts | 48° |
| 2026-05-08 08:18 | 13.81632 | 101.30342 | 20590 ft | 447 kts | 48° |
| 2026-05-08 08:19 | 13.83774 | 101.32681 | 21191 ft | 451 kts | 48° |
| 2026-05-08 08:19 | 13.85934 | 101.35047 | 21776 ft | 455 kts | 48° |
| 2026-05-08 08:19 | 13.88108 | 101.37441 | 22367 ft | 460 kts | 48° |
| 2026-05-08 08:19 | 13.90293 | 101.39860 | 22936 ft | 464 kts | 48° |
| 2026-05-08 08:20 | 13.92492 | 101.42305 | 23464 ft | 468 kts | 48° |
| 2026-05-08 08:20 | 13.94713 | 101.44779 | 23947 ft | 472 kts | 48° |
| 2026-05-08 08:20 | 13.96945 | 101.47269 | 24422 ft | 474 kts | 48° |
| 2026-05-08 08:20 | 13.99190 | 101.49775 | 24903 ft | 477 kts | 48° |
| 2026-05-08 08:21 | 14.01446 | 101.52294 | 25360 ft | 480 kts | 48° |
| 2026-05-08 08:21 | 14.03719 | 101.54831 | 25805 ft | 483 kts | 48° |
| 2026-05-08 08:21 | 14.05974 | 101.57349 | 26239 ft | 487 kts | 48° |
| 2026-05-08 08:21 | 14.08307 | 101.59955 | 26680 ft | 490 kts | 48° |
| 2026-05-08 08:22 | 14.10622 | 101.62541 | 27100 ft | 493 kts | 48° |
| 2026-05-08 08:22 | 14.12952 | 101.65146 | 27515 ft | 496 kts | 48° |
| 2026-05-08 08:22 | 14.15296 | 101.67766 | 27893 ft | 499 kts | 48° |
| 2026-05-08 08:22 | 14.17650 | 101.70398 | 28297 ft | 501 kts | 48° |
| 2026-05-08 08:23 | 14.19985 | 101.73010 | 28678 ft | 503 kts | 48° |
| 2026-05-08 08:23 | 14.22359 | 101.75665 | 29064 ft | 505 kts | 48° |
| 2026-05-08 08:23 | 14.24738 | 101.78330 | 29425 ft | 507 kts | 48° |
| 2026-05-08 08:23 | 14.27130 | 101.81010 | 29765 ft | 509 kts | 48° |
| 2026-05-08 08:24 | 14.29487 | 101.83651 | 30084 ft | 509 kts | 48° |
| 2026-05-08 08:24 | 14.31749 | 101.86443 | 30516 ft | 506 kts | 54° |
| 2026-05-08 08:24 | 14.33653 | 101.89472 | 30996 ft | 502 kts | 60° |
| 2026-05-08 08:24 | 14.35257 | 101.92631 | 31468 ft | 499 kts | 65° |
| 2026-05-08 08:25 | 14.36532 | 101.95955 | 31889 ft | 497 kts | 71° |
| 2026-05-08 08:25 | 14.37657 | 101.99320 | 32319 ft | 495 kts | 71° |
| 2026-05-08 08:25 | 14.38762 | 102.02679 | 32777 ft | 494 kts | 71° |
| 2026-05-08 08:25 | 14.39864 | 102.06024 | 33191 ft | 492 kts | 71° |
| 2026-05-08 08:26 | 14.40973 | 102.09360 | 33595 ft | 492 kts | 71° |
| 2026-05-08 08:26 | 14.42093 | 102.12698 | 33921 ft | 492 kts | 70° |
| 2026-05-08 08:26 | 14.43216 | 102.16022 | 34313 ft | 490 kts | 70° |
| 2026-05-08 08:26 | 14.44339 | 102.19337 | 34660 ft | 489 kts | 70° |
| 2026-05-08 08:27 | 14.45461 | 102.22642 | 35037 ft | 487 kts | 70° |
| 2026-05-08 08:27 | 14.46579 | 102.25937 | 35378 ft | 487 kts | 70° |
| 2026-05-08 08:27 | 14.47695 | 102.29230 | 35755 ft | 485 kts | 70° |
| 2026-05-08 08:27 | 14.48805 | 102.32509 | 36084 ft | 484 kts | 71° |
| 2026-05-08 08:28 | 14.49899 | 102.35742 | 36385 ft | 484 kts | 71° |
| 2026-05-08 08:28 | 14.51010 | 102.39028 | 36628 ft | 485 kts | 71° |
| 2026-05-08 08:28 | 14.52122 | 102.42321 | 36766 ft | 487 kts | 70° |
| 2026-05-08 08:29 | 14.54352 | 102.48921 | 36840 ft | 485 kts | 70° |
| 2026-05-08 08:29 | 14.56558 | 102.55460 | 36839 ft | 481 kts | 70° |
| 2026-05-08 08:30 | 14.58752 | 102.61977 | 36844 ft | 480 kts | 70° |
| 2026-05-08 08:30 | 14.62033 | 102.71732 | 36843 ft | 479 kts | 70° |
| 2026-05-08 08:31 | 14.64222 | 102.78240 | 36848 ft | 480 kts | 70° |
| 2026-05-08 08:31 | 14.66422 | 102.84752 | 36846 ft | 481 kts | 70° |
| 2026-05-08 08:32 | 14.68632 | 102.91291 | 36845 ft | 482 kts | 70° |
| 2026-05-08 08:32 | 14.70841 | 102.97841 | 36847 ft | 483 kts | 70° |
| 2026-05-08 08:33 | 14.73053 | 103.04408 | 36844 ft | 484 kts | 70° |
| 2026-05-08 08:33 | 14.75264 | 103.10981 | 36847 ft | 485 kts | 70° |
| 2026-05-08 08:34 | 14.77474 | 103.17558 | 36841 ft | 485 kts | 70° |
| 2026-05-08 08:34 | 14.79685 | 103.24145 | 36849 ft | 485 kts | 70° |
| 2026-05-08 08:35 | 14.81891 | 103.30726 | 36847 ft | 485 kts | 70° |
| 2026-05-08 08:35 | 14.84099 | 103.37313 | 36846 ft | 485 kts | 70° |
| 2026-05-08 08:36 | 14.86985 | 103.43590 | 36853 ft | 484 kts | 58° |
| 2026-05-08 08:36 | 14.90941 | 103.49144 | 36854 ft | 483 kts | 49° |
| 2026-05-08 08:37 | 14.95356 | 103.54376 | 36851 ft | 483 kts | 49° |
| 2026-05-08 08:37 | 14.99759 | 103.59624 | 36851 ft | 483 kts | 49° |
| 2026-05-08 08:38 | 15.04127 | 103.64907 | 36852 ft | 483 kts | 50° |
| 2026-05-08 08:38 | 15.08487 | 103.70196 | 36852 ft | 483 kts | 50° |
| 2026-05-08 08:39 | 15.12894 | 103.75448 | 36846 ft | 483 kts | 45° |
| 2026-05-08 08:39 | 15.18179 | 103.79707 | 36855 ft | 483 kts | 31° |
| 2026-05-08 08:40 | 15.24248 | 103.82695 | 36858 ft | 484 kts | 22° |
| 2026-05-08 08:40 | 15.30426 | 103.85319 | 36847 ft | 485 kts | 22° |
| 2026-05-08 08:41 | 15.36677 | 103.88003 | 36851 ft | 487 kts | 23° |
| 2026-05-08 08:41 | 15.42930 | 103.90739 | 36856 ft | 489 kts | 23° |
| 2026-05-08 08:42 | 15.49200 | 103.93503 | 36855 ft | 491 kts | 23° |
| 2026-05-08 08:42 | 15.55490 | 103.96276 | 36853 ft | 492 kts | 22° |
| 2026-05-08 08:43 | 15.61791 | 103.99053 | 36853 ft | 492 kts | 22° |
| 2026-05-08 08:43 | 15.68057 | 104.01816 | 36852 ft | 493 kts | 22° |
| 2026-05-08 08:44 | 15.74364 | 104.04598 | 36853 ft | 492 kts | 22° |
| 2026-05-08 08:44 | 15.80664 | 104.07380 | 36853 ft | 492 kts | 22° |
| 2026-05-08 08:45 | 15.86955 | 104.10160 | 36851 ft | 491 kts | 22° |
| 2026-05-08 08:45 | 15.93245 | 104.12942 | 36860 ft | 491 kts | 22° |
| 2026-05-08 08:46 | 15.99524 | 104.15720 | 36859 ft | 490 kts | 22° |
| 2026-05-08 08:46 | 16.05516 | 104.19079 | 36870 ft | 491 kts | 35° |
| 2026-05-08 08:47 | 16.10622 | 104.23791 | 36870 ft | 492 kts | 46° |
| 2026-05-08 08:47 | 16.14401 | 104.28197 | 36879 ft | 493 kts | 47° |
| 2026-05-08 08:48 | 16.18961 | 104.33517 | 36874 ft | 493 kts | 47° |
| 2026-05-08 08:48 | 16.23578 | 104.38802 | 36883 ft | 493 kts | 46° |
| 2026-05-08 08:49 | 16.28191 | 104.44078 | 36867 ft | 493 kts | 47° |
| 2026-05-08 08:49 | 16.32764 | 104.49386 | 36886 ft | 492 kts | 47° |
| 2026-05-08 08:50 | 16.37323 | 104.54701 | 36892 ft | 492 kts | 47° |
| 2026-05-08 08:50 | 16.41893 | 104.60024 | 36886 ft | 493 kts | 47° |
| 2026-05-08 08:51 | 16.46454 | 104.65335 | 36928 ft | 492 kts | 47° |
| 2026-05-08 08:51 | 16.51019 | 104.70655 | 36890 ft | 492 kts | 47° |
| 2026-05-08 08:52 | 16.55557 | 104.75985 | 36899 ft | 491 kts | 49° |
| 2026-05-08 08:52 | 16.59474 | 104.81799 | 36923 ft | 490 kts | 56° |
| 2026-05-08 08:53 | 16.63115 | 104.87812 | 36916 ft | 490 kts | 56° |
| 2026-05-08 08:53 | 16.66772 | 104.93809 | 36912 ft | 490 kts | 56° |
| 2026-05-08 08:54 | 16.70455 | 104.99790 | 36900 ft | 490 kts | 56° |
| 2026-05-08 08:54 | 16.74141 | 105.05766 | 36879 ft | 490 kts | 56° |
| 2026-05-08 08:55 | 16.77822 | 105.11743 | 36885 ft | 490 kts | 56° |
| 2026-05-08 08:55 | 16.81500 | 105.17725 | 36888 ft | 490 kts | 56° |
| 2026-05-08 08:56 | 16.85180 | 105.23713 | 36881 ft | 490 kts | 56° |
| 2026-05-08 08:56 | 16.88830 | 105.29662 | 36876 ft | 490 kts | 56° |
| 2026-05-08 08:57 | 16.92502 | 105.35663 | 36875 ft | 491 kts | 56° |
| 2026-05-08 08:57 | 16.96176 | 105.41670 | 36888 ft | 491 kts | 56° |
| 2026-05-08 08:58 | 16.99854 | 105.47692 | 36873 ft | 492 kts | 56° |
| 2026-05-08 08:58 | 17.03532 | 105.53716 | 36882 ft | 492 kts | 56° |
| 2026-05-08 08:59 | 17.07213 | 105.59753 | 36874 ft | 493 kts | 56° |
| 2026-05-08 08:59 | 17.10894 | 105.65794 | 36904 ft | 492 kts | 56° |
| 2026-05-08 09:00 | 17.14572 | 105.71828 | 36891 ft | 492 kts | 56° |
| 2026-05-08 09:00 | 17.18239 | 105.77860 | 36891 ft | 491 kts | 56° |
| 2026-05-08 09:01 | 17.21900 | 105.83888 | 36911 ft | 491 kts | 56° |
| 2026-05-08 09:01 | 17.25559 | 105.89914 | 36916 ft | 490 kts | 56° |
| 2026-05-08 09:02 | 17.29213 | 105.95938 | 36924 ft | 490 kts | 55° |
| 2026-05-08 09:02 | 17.32864 | 106.01962 | 36945 ft | 490 kts | 56° |
| 2026-05-08 09:03 | 17.36512 | 106.07984 | 36944 ft | 489 kts | 56° |
| 2026-05-08 09:03 | 17.40179 | 106.13975 | 36938 ft | 488 kts | 55° |
| 2026-05-08 09:04 | 17.43865 | 106.19951 | 36960 ft | 488 kts | 55° |
| 2026-05-08 09:04 | 17.47547 | 106.25934 | 36938 ft | 489 kts | 55° |
| 2026-05-08 09:05 | 17.51205 | 106.31893 | 36935 ft | 490 kts | 55° |
| 2026-05-08 09:05 | 17.54913 | 106.37943 | 36930 ft | 491 kts | 55° |
| 2026-05-08 09:06 | 17.58579 | 106.43928 | 36932 ft | 491 kts | 55° |
| 2026-05-08 09:06 | 17.62266 | 106.49952 | 36920 ft | 491 kts | 55° |
| 2026-05-08 09:07 | 17.65952 | 106.55982 | 36923 ft | 491 kts | 55° |
| 2026-05-08 09:07 | 17.69637 | 106.62014 | 36917 ft | 491 kts | 55° |
| 2026-05-08 09:08 | 17.73316 | 106.68057 | 36919 ft | 491 kts | 55° |
| 2026-05-08 09:08 | 17.76990 | 106.74099 | 36911 ft | 491 kts | 56° |
| 2026-05-08 09:09 | 17.80657 | 106.80135 | 36903 ft | 490 kts | 56° |
| 2026-05-08 09:09 | 17.84319 | 106.86169 | 36904 ft | 490 kts | 56° |
| 2026-05-08 09:10 | 17.87982 | 106.92207 | 36898 ft | 490 kts | 56° |
| 2026-05-08 09:10 | 17.91656 | 106.98226 | 36901 ft | 489 kts | 55° |
| 2026-05-08 09:11 | 17.95345 | 107.04234 | 36903 ft | 489 kts | 55° |
| 2026-05-08 09:11 | 17.99029 | 107.10247 | 36901 ft | 490 kts | 56° |
| 2026-05-08 09:12 | 18.02708 | 107.16268 | 36900 ft | 490 kts | 56° |
| 2026-05-08 09:12 | 18.06386 | 107.22290 | 36899 ft | 490 kts | 56° |
| 2026-05-08 09:13 | 18.10037 | 107.28285 | 36900 ft | 490 kts | 56° |
| 2026-05-08 09:13 | 18.13703 | 107.34326 | 36900 ft | 490 kts | 56° |
| 2026-05-08 09:14 | 18.17371 | 107.40376 | 36901 ft | 491 kts | 56° |
| 2026-05-08 09:14 | 18.21047 | 107.46440 | 36899 ft | 492 kts | 56° |
| 2026-05-08 09:15 | 18.24730 | 107.52527 | 36904 ft | 494 kts | 56° |
| 2026-05-08 09:15 | 18.28427 | 107.58640 | 36906 ft | 496 kts | 56° |
| 2026-05-08 09:16 | 18.32122 | 107.64755 | 36998 ft | 495 kts | 56° |
| 2026-05-08 09:16 | 18.36050 | 107.70701 | 37003 ft | 494 kts | 49° |